createdAt,value
2016-08-11T00:00:17.523Z,1012.15
2016-08-11T00:01:18.036Z,1012.12
2016-08-11T00:02:18.107Z,1012.07
2016-08-11T00:03:17.743Z,1012.1
2016-08-11T00:04:17.701Z,1012.08
2016-08-11T00:05:17.622Z,1012.11
2016-08-11T00:06:17.898Z,1012.09
2016-08-11T00:07:17.840Z,1012.11
2016-08-11T00:08:18.263Z,1012.1
2016-08-11T00:09:18.214Z,1012.11
2016-08-11T00:10:17.882Z,1012.08
2016-08-11T00:11:17.837Z,1012.08
2016-08-11T00:12:17.815Z,1012.11
2016-08-11T00:14:17.967Z,1012.17
2016-08-11T00:15:17.955Z,1012.15
2016-08-11T00:16:18.563Z,1012.16
2016-08-11T00:17:17.882Z,1012.16
2016-08-11T00:18:18.466Z,1012.18
2016-08-11T00:19:17.897Z,1012.21
2016-08-11T00:20:18.718Z,1012.19
2016-08-11T00:21:17.936Z,1012.16
2016-08-11T00:22:18.869Z,1012.18
2016-08-11T00:23:18.018Z,1012.15
2016-08-11T00:24:18.544Z,1012.16
2016-08-11T00:25:18.446Z,1012.18
2016-08-11T00:26:18.477Z,1012.17
2016-08-11T00:27:18.364Z,1012.21
2016-08-11T00:29:18.130Z,1012.16
2016-08-11T00:30:18.242Z,1012.15
2016-08-11T00:31:18.704Z,1012.17
2016-08-11T00:32:18.302Z,1012.19
2016-08-11T00:33:18.587Z,1012.18
2016-08-11T00:34:18.343Z,1012.2
2016-08-11T00:35:18.290Z,1012.2
2016-08-11T00:36:18.362Z,1012.17
2016-08-11T00:37:18.486Z,1012.21
2016-08-11T00:38:18.727Z,1012.17
2016-08-11T00:39:18.317Z,1012.18
2016-08-11T00:40:18.305Z,1012.19
2016-08-11T00:41:18.549Z,1012.18
2016-08-11T00:42:18.507Z,1012.19
2016-08-11T00:43:18.528Z,1012.21
2016-08-11T00:44:18.465Z,1012.21
2016-08-11T00:45:18.435Z,1012.19
2016-08-11T00:46:18.746Z,1012.2
2016-08-11T00:47:18.671Z,1012.19
2016-08-11T00:48:18.793Z,1012.18
2016-08-11T00:49:18.702Z,1012.22
2016-08-11T00:50:18.644Z,1012.17
2016-08-11T00:51:18.581Z,1012.16
2016-08-11T00:52:18.700Z,1012.13
2016-08-11T00:53:18.825Z,1012.19
2016-08-11T00:54:19.268Z,1012.19
2016-08-11T00:55:18.889Z,1012.17
2016-08-11T00:56:18.943Z,1012.16
2016-08-11T00:57:18.783Z,1012.16
2016-08-11T00:58:18.722Z,1012.15
2016-08-11T00:59:19.317Z,1012.14
2016-08-11T01:00:18.926Z,1012.15
2016-08-11T01:01:18.914Z,1012.14
2016-08-11T01:02:18.904Z,1012.19
2016-08-11T01:03:19.050Z,1012.17
2016-08-11T01:04:18.865Z,1012.16
2016-08-11T01:05:19.204Z,1012.2
2016-08-11T01:06:19.182Z,1012.22
2016-08-11T01:07:18.864Z,1012.25
2016-08-11T01:08:19.522Z,1012.23
2016-08-11T01:09:19.343Z,1012.27
2016-08-11T01:10:18.959Z,1012.24
2016-08-11T01:11:19.040Z,1012.25
2016-08-11T01:12:19.142Z,1012.24
2016-08-11T01:14:19.152Z,1012.25
2016-08-11T01:15:19.375Z,1012.23
2016-08-11T01:16:19.284Z,1012.28
2016-08-11T01:17:19.146Z,1012.27
2016-08-11T01:18:19.090Z,1012.33
2016-08-11T01:19:19.417Z,1012.29
2016-08-11T01:20:19.199Z,1012.27
2016-08-11T01:21:19.337Z,1012.27
2016-08-11T01:22:19.234Z,1012.3
2016-08-11T01:23:19.139Z,1012.26
2016-08-11T01:24:19.544Z,1012.26
2016-08-11T01:25:19.525Z,1012.3
2016-08-11T01:26:19.329Z,1012.3
2016-08-11T01:27:20.102Z,1012.34
2016-08-11T01:28:19.415Z,1012.31
2016-08-11T01:29:19.457Z,1012.32
2016-08-11T01:30:19.393Z,1012.32
2016-08-11T01:31:20.002Z,1012.31
2016-08-11T01:32:19.843Z,1012.34
2016-08-11T01:33:19.734Z,1012.34
2016-08-11T01:34:19.384Z,1012.29
2016-08-11T01:35:19.572Z,1012.32
2016-08-11T01:36:19.728Z,1012.33
2016-08-11T01:37:19.682Z,1012.35
2016-08-11T01:38:19.802Z,1012.29
2016-08-11T01:39:19.940Z,1012.32
2016-08-11T01:40:19.825Z,1012.29
2016-08-11T01:41:19.640Z,1012.31
2016-08-11T01:42:19.709Z,1012.35
2016-08-11T01:43:19.721Z,1012.3
2016-08-11T01:44:20.122Z,1012.3
2016-08-11T01:45:19.826Z,1012.32
2016-08-11T01:46:20.022Z,1012.31
2016-08-11T01:47:19.680Z,1012.34
2016-08-11T01:48:19.989Z,1012.33
2016-08-11T01:49:19.658Z,1012.31
2016-08-11T01:50:19.818Z,1012.34
2016-08-11T01:51:19.845Z,1012.42
2016-08-11T01:52:19.716Z,1012.38
2016-08-11T01:53:20.695Z,1012.42
2016-08-11T01:54:20.111Z,1012.39
2016-08-11T01:55:19.804Z,1012.38
2016-08-11T01:56:19.810Z,1012.39
2016-08-11T01:57:20.734Z,1012.39
2016-08-11T01:58:19.977Z,1012.38
2016-08-11T01:59:20.098Z,1012.4
2016-08-11T02:00:20.046Z,1012.4
2016-08-11T02:01:19.966Z,1012.36
2016-08-11T02:02:20.530Z,1012.38
2016-08-11T02:03:20.922Z,1012.41
2016-08-11T02:04:20.111Z,1012.37
2016-08-11T02:05:20.038Z,1012.36
2016-08-11T02:06:19.917Z,1012.36
2016-08-11T02:07:19.945Z,1012.35
2016-08-11T02:08:20.095Z,1012.32
2016-08-11T02:09:20.034Z,1012.35
2016-08-11T02:10:20.638Z,1012.37
2016-08-11T02:11:20.136Z,1012.35
2016-08-11T02:12:20.544Z,1012.36
2016-08-11T02:13:20.318Z,1012.38
2016-08-11T02:14:20.622Z,1012.4
2016-08-11T02:15:20.682Z,1012.43
2016-08-11T02:16:20.632Z,1012.39
2016-08-11T02:17:21.497Z,1012.42
2016-08-11T02:18:20.667Z,1012.41
2016-08-11T02:19:20.663Z,1012.36
2016-08-11T02:20:20.676Z,1012.39
2016-08-11T02:21:20.729Z,1012.38
2016-08-11T02:22:20.751Z,1012.36
2016-08-11T02:23:21.226Z,1012.36
2016-08-11T02:24:20.656Z,1012.4
2016-08-11T02:25:21.527Z,1012.39
2016-08-11T02:26:20.803Z,1012.41
2016-08-11T02:27:20.803Z,1012.39
2016-08-11T02:28:20.702Z,1012.39
2016-08-11T02:29:20.814Z,1012.35
2016-08-11T02:30:20.907Z,1012.37
2016-08-11T02:31:20.817Z,1012.38
2016-08-11T02:32:21.103Z,1012.4
2016-08-11T02:33:20.755Z,1012.38
2016-08-11T02:34:20.883Z,1012.36
2016-08-11T02:35:20.563Z,1012.37
2016-08-11T02:36:20.518Z,1012.37
2016-08-11T02:37:21.382Z,1012.32
2016-08-11T02:38:21.194Z,1012.34
2016-08-11T02:39:20.739Z,1012.38
2016-08-11T02:40:20.777Z,1012.37
2016-08-11T02:41:20.747Z,1012.43
2016-08-11T02:42:21.047Z,1012.4
2016-08-11T02:43:21.004Z,1012.41
2016-08-11T02:44:21.025Z,1012.44
2016-08-11T02:45:21.049Z,1012.44
2016-08-11T02:46:21.199Z,1012.43
2016-08-11T02:47:21.084Z,1012.39
2016-08-11T02:48:21.384Z,1012.36
2016-08-11T02:49:21.449Z,1012.4
2016-08-11T02:50:21.189Z,1012.37
2016-08-11T02:51:21.028Z,1012.35
2016-08-11T02:52:21.047Z,1012.37
2016-08-11T02:53:21.045Z,1012.38
2016-08-11T02:54:20.821Z,1012.36
2016-08-11T02:55:21.382Z,1012.36
2016-08-11T02:56:21.119Z,1012.39
2016-08-11T02:57:20.989Z,1012.34
2016-08-11T02:58:21.237Z,1012.33
2016-08-11T02:59:21.229Z,1012.35
2016-08-11T03:00:21.220Z,1012.35
2016-08-11T03:01:21.191Z,1012.34
2016-08-11T03:02:21.722Z,1012.37
2016-08-11T03:03:21.019Z,1012.34
2016-08-11T03:04:21.475Z,1012.37
2016-08-11T03:05:20.953Z,1012.3
2016-08-11T03:06:21.378Z,1012.36
2016-08-11T03:07:21.298Z,1012.39
2016-08-11T03:08:21.366Z,1012.35
2016-08-11T03:09:21.259Z,1012.35
2016-08-11T03:10:21.609Z,1012.38
2016-08-11T03:11:21.126Z,1012.36
2016-08-11T03:12:21.246Z,1012.36
2016-08-11T03:13:21.362Z,1012.35
2016-08-11T03:14:21.911Z,1012.35
2016-08-11T03:15:21.309Z,1012.35
2016-08-11T03:16:21.610Z,1012.35
2016-08-11T03:17:21.782Z,1012.33
2016-08-11T03:18:21.564Z,1012.33
2016-08-11T03:19:21.340Z,1012.38
2016-08-11T03:20:21.334Z,1012.37
2016-08-11T03:21:21.445Z,1012.38
2016-08-11T03:22:21.864Z,1012.4
2016-08-11T03:23:21.846Z,1012.4
2016-08-11T03:24:21.717Z,1012.41
2016-08-11T03:25:21.482Z,1012.4
2016-08-11T03:26:21.614Z,1012.44
2016-08-11T03:27:21.488Z,1012.46
2016-08-11T03:28:21.785Z,1012.5
2016-08-11T03:29:21.827Z,1012.49
2016-08-11T03:30:21.988Z,1012.51
2016-08-11T03:31:21.692Z,1012.5
2016-08-11T03:32:21.729Z,1012.5
2016-08-11T03:33:21.601Z,1012.51
2016-08-11T03:34:21.636Z,1012.53
2016-08-11T03:35:21.725Z,1012.54
2016-08-11T03:36:21.871Z,1012.51
2016-08-11T03:37:22.107Z,1012.52
2016-08-11T03:38:21.739Z,1012.55
2016-08-11T03:39:21.706Z,1012.51
2016-08-11T03:40:21.863Z,1012.59
2016-08-11T03:41:22.059Z,1012.6
2016-08-11T03:42:21.884Z,1012.58
2016-08-11T03:43:21.846Z,1012.6
2016-08-11T03:44:21.677Z,1012.57
2016-08-11T03:45:21.867Z,1012.61
2016-08-11T03:46:21.753Z,1012.59
2016-08-11T03:47:21.796Z,1012.58
2016-08-11T03:48:21.949Z,1012.59
2016-08-11T03:49:21.980Z,1012.61
2016-08-11T03:50:22.002Z,1012.57
2016-08-11T03:51:22.200Z,1012.57
2016-08-11T03:52:22.252Z,1012.61
2016-08-11T03:53:22.012Z,1012.65
2016-08-11T03:54:21.972Z,1012.66
2016-08-11T03:55:21.855Z,1012.63
2016-08-11T03:56:21.935Z,1012.67
2016-08-11T03:57:22.264Z,1012.67
2016-08-11T03:58:22.604Z,1012.67
2016-08-11T03:59:22.206Z,1012.66
2016-08-11T04:00:22.228Z,1012.65
2016-08-11T04:01:22.719Z,1012.67
2016-08-11T04:02:22.318Z,1012.64
2016-08-11T04:03:22.339Z,1012.66
2016-08-11T04:04:22.449Z,1012.6
2016-08-11T04:05:22.285Z,1012.61
2016-08-11T04:06:22.508Z,1012.58
2016-08-11T04:07:22.306Z,1012.53
2016-08-11T04:08:22.380Z,1012.51
2016-08-11T04:09:22.671Z,1012.47
2016-08-11T04:10:22.434Z,1012.46
2016-08-11T04:11:22.322Z,1012.43
2016-08-11T04:12:22.590Z,1012.39
2016-08-11T04:13:22.809Z,1012.47
2016-08-11T04:14:22.758Z,1012.41
2016-08-11T04:15:22.377Z,1012.41
2016-08-11T04:16:22.366Z,1012.43
2016-08-11T04:17:22.358Z,1012.47
2016-08-11T04:18:23.152Z,1012.43
2016-08-11T04:19:22.642Z,1012.46
2016-08-11T04:20:22.707Z,1012.41
2016-08-11T04:21:22.471Z,1012.45
2016-08-11T04:22:23.206Z,1012.49
2016-08-11T04:23:22.721Z,1012.48
2016-08-11T04:24:23.095Z,1012.49
2016-08-11T04:25:22.514Z,1012.55
2016-08-11T04:26:22.697Z,1012.56
2016-08-11T04:27:22.619Z,1012.57
2016-08-11T04:28:22.748Z,1012.58
2016-08-11T04:29:22.605Z,1012.62
2016-08-11T04:30:22.640Z,1012.57
2016-08-11T04:31:23.016Z,1012.6
2016-08-11T04:32:23.227Z,1012.62
2016-08-11T04:33:23.047Z,1012.66
2016-08-11T04:34:22.617Z,1012.64
2016-08-11T04:35:22.598Z,1012.67
2016-08-11T04:36:23.337Z,1012.74
2016-08-11T04:37:22.844Z,1012.71
2016-08-11T04:38:22.920Z,1012.72
2016-08-11T04:39:23.523Z,1012.7
2016-08-11T04:40:22.946Z,1012.75
2016-08-11T04:41:22.942Z,1012.75
2016-08-11T04:42:23.062Z,1012.75
2016-08-11T04:43:23.110Z,1012.78
2016-08-11T04:44:23.314Z,1012.78
2016-08-11T04:45:23.273Z,1012.85
2016-08-11T04:46:23.050Z,1012.82
2016-08-11T04:47:23.115Z,1012.84
2016-08-11T04:48:23.106Z,1012.85
2016-08-11T04:49:22.914Z,1012.83
2016-08-11T04:50:23.494Z,1012.87
2016-08-11T04:51:22.941Z,1012.85
2016-08-11T04:52:23.669Z,1012.81
2016-08-11T04:53:23.072Z,1012.84
2016-08-11T04:54:23.075Z,1012.85
2016-08-11T04:55:23.189Z,1012.79
2016-08-11T04:56:23.345Z,1012.86
2016-08-11T04:57:23.022Z,1012.82
2016-08-11T04:58:23.257Z,1012.83
2016-08-11T04:59:23.431Z,1012.83
2016-08-11T05:00:23.686Z,1012.88
2016-08-11T05:01:23.349Z,1012.92
2016-08-11T05:02:23.505Z,1012.92
2016-08-11T05:03:23.233Z,1012.99
2016-08-11T05:04:23.446Z,1012.94
2016-08-11T05:05:23.781Z,1012.96
2016-08-11T05:06:23.798Z,1012.96
2016-08-11T05:07:23.228Z,1012.99
2016-08-11T05:08:23.214Z,1012.96
2016-08-11T05:09:23.794Z,1012.99
2016-08-11T05:10:23.510Z,1012.98
2016-08-11T05:11:23.522Z,1012.98
2016-08-11T05:12:23.610Z,1012.97
2016-08-11T05:13:23.824Z,1012.93
2016-08-11T05:14:23.709Z,1012.95
2016-08-11T05:15:23.347Z,1012.96
2016-08-11T05:16:23.523Z,1012.96
2016-08-11T05:17:23.613Z,1012.98
2016-08-11T05:18:23.555Z,1013.01
2016-08-11T05:19:24.408Z,1013.03
2016-08-11T05:20:23.546Z,1013.02
2016-08-11T05:21:24.296Z,1013.01
2016-08-11T05:22:23.802Z,1013.06
2016-08-11T05:23:23.605Z,1013.04
2016-08-11T05:24:23.844Z,1013.01
2016-08-11T05:25:23.863Z,1013.02
2016-08-11T05:26:23.532Z,1013.05
2016-08-11T05:27:24.322Z,1013.04
2016-08-11T05:28:23.668Z,1013.03
2016-08-11T05:29:23.958Z,1013.02
2016-08-11T05:30:23.920Z,1013.01
2016-08-11T05:31:24.015Z,1013.02
2016-08-11T05:32:24.581Z,1013.05
2016-08-11T05:33:23.970Z,1013.03
2016-08-11T05:34:24.397Z,1013.04
2016-08-11T05:35:24.532Z,1013.06
2016-08-11T05:36:24.174Z,1013.05
2016-08-11T05:37:24.398Z,1013.03
2016-08-11T05:38:24.361Z,1013.05
2016-08-11T05:39:24.260Z,1013.05
2016-08-11T05:40:24.314Z,1013.02
2016-08-11T05:41:24.584Z,1013.02
2016-08-11T05:42:24.087Z,1013.06
2016-08-11T05:43:24.297Z,1013.04
2016-08-11T05:44:24.029Z,1013.05
2016-08-11T05:45:24.087Z,1013.02
2016-08-11T05:46:24.432Z,1013.04
2016-08-11T05:47:24.097Z,1013.06
2016-08-11T05:48:24.487Z,1013.06
2016-08-11T05:49:25.329Z,1013
2016-08-11T05:50:24.469Z,1013.02
2016-08-11T05:51:24.392Z,1013.02
2016-08-11T05:52:24.358Z,1013.02
2016-08-11T05:53:24.550Z,1013.02
2016-08-11T05:54:24.209Z,1013.03
2016-08-11T05:55:24.944Z,1013.01
2016-08-11T05:56:24.692Z,1013.05
2016-08-11T05:57:24.355Z,1013.08
2016-08-11T05:58:24.459Z,1013.08
2016-08-11T05:59:24.527Z,1013.12
2016-08-11T06:00:24.373Z,1013.16
2016-08-11T06:01:24.396Z,1013.12
2016-08-11T06:02:24.557Z,1013.07
2016-08-11T06:03:24.599Z,1013.03
2016-08-11T06:04:24.407Z,1013.05
2016-08-11T06:05:24.317Z,1013.05
2016-08-11T06:06:24.587Z,1013.03
2016-08-11T06:07:24.403Z,1012.99
2016-08-11T06:08:24.576Z,1012.99
2016-08-11T06:09:24.820Z,1013
2016-08-11T06:10:24.498Z,1012.97
2016-08-11T06:11:25.305Z,1012.99
2016-08-11T06:12:25.517Z,1013.03
2016-08-11T06:13:24.964Z,1013.01
2016-08-11T06:15:25.032Z,1013.07
2016-08-11T06:16:25.028Z,1013.03
2016-08-11T06:17:25.114Z,1013.04
2016-08-11T06:18:24.748Z,1012.99
2016-08-11T06:19:25.287Z,1013.06
2016-08-11T06:20:25.085Z,1013.04
2016-08-11T06:21:24.703Z,1013.09
2016-08-11T06:22:25.117Z,1013.07
2016-08-11T06:23:24.771Z,1013.07
2016-08-11T06:24:25.091Z,1013.06
2016-08-11T06:25:24.847Z,1013.13
2016-08-11T06:26:25.286Z,1013.08
2016-08-11T06:27:24.957Z,1013.12
2016-08-11T06:28:25.150Z,1013.1
2016-08-11T06:29:25.172Z,1013.06
2016-08-11T06:30:25.083Z,1013.08
2016-08-11T06:31:24.970Z,1013.05
2016-08-11T06:32:25.190Z,1013.06
2016-08-11T06:33:25.001Z,1013.11
2016-08-11T06:34:24.981Z,1013.1
2016-08-11T06:35:24.930Z,1013.14
2016-08-11T06:36:25.018Z,1013.16
2016-08-11T06:37:25.247Z,1013.15
2016-08-11T06:38:25.400Z,1013.15
2016-08-11T06:39:25.003Z,1013.18
2016-08-11T06:40:25.090Z,1013.23
2016-08-11T06:41:25.971Z,1013.29
2016-08-11T06:42:25.479Z,1013.27
2016-08-11T06:43:25.541Z,1013.28
2016-08-11T06:44:25.265Z,1013.18
2016-08-11T06:45:26.064Z,1013.22
2016-08-11T06:46:25.702Z,1013.18
2016-08-11T06:47:25.787Z,1013.13
2016-08-11T06:48:26.112Z,1013.18
2016-08-11T06:49:25.678Z,1013.17
2016-08-11T06:50:26.057Z,1013.14
2016-08-11T06:51:25.489Z,1013.19
2016-08-11T06:52:25.778Z,1013.15
2016-08-11T06:53:25.823Z,1013.19
2016-08-11T06:54:25.736Z,1013.21
2016-08-11T06:55:25.608Z,1013.2
2016-08-11T06:56:25.773Z,1013.23
2016-08-11T06:57:25.768Z,1013.26
2016-08-11T06:58:25.406Z,1013.25
2016-08-11T06:59:26.555Z,1013.2
2016-08-11T07:00:25.900Z,1013.16
2016-08-11T07:01:25.535Z,1013.18
2016-08-11T07:02:26.009Z,1013.19
2016-08-11T07:03:26.091Z,1013.2
2016-08-11T07:04:25.646Z,1013.14
2016-08-11T07:05:25.830Z,1013.13
2016-08-11T07:06:25.701Z,1013.12
2016-08-11T07:07:25.780Z,1013.17
2016-08-11T07:08:26.168Z,1013.19
2016-08-11T07:09:25.669Z,1013.23
2016-08-11T07:10:25.761Z,1013.14
2016-08-11T07:11:25.805Z,1013.14
2016-08-11T07:12:26.370Z,1013.16
2016-08-11T07:13:25.768Z,1013.29
2016-08-11T07:14:26.420Z,1013.18
2016-08-11T07:15:25.917Z,1013.28
2016-08-11T07:16:26.487Z,1013.22
2016-08-11T07:17:26.030Z,1013.27
2016-08-11T07:18:26.194Z,1013.3
2016-08-11T07:19:25.900Z,1013.34
2016-08-11T07:20:26.307Z,1013.32
2016-08-11T07:21:26.308Z,1013.3
2016-08-11T07:22:26.358Z,1013.23
2016-08-11T07:23:26.368Z,1013.34
2016-08-11T07:24:26.343Z,1013.33
2016-08-11T07:25:26.347Z,1013.42
2016-08-11T07:26:26.414Z,1013.41
2016-08-11T07:27:26.432Z,1013.28
2016-08-11T07:28:26.218Z,1013.24
2016-08-11T07:30:26.272Z,1013.24
2016-08-11T07:31:26.271Z,1013.15
2016-08-11T07:32:26.624Z,1013.14
2016-08-11T07:33:26.503Z,1013.28
2016-08-11T07:34:26.551Z,1013.21
2016-08-11T07:35:26.634Z,1013.27
2016-08-11T07:36:26.859Z,1013.13
2016-08-11T07:37:26.519Z,1013.16
2016-08-11T07:38:26.523Z,1013.2
2016-08-11T07:39:26.746Z,1013.14
2016-08-11T07:40:26.343Z,1013.13
2016-08-11T07:41:26.600Z,1013.05
2016-08-11T07:42:26.523Z,1013.07
2016-08-11T07:43:26.726Z,1013.13
2016-08-11T07:45:26.673Z,1013.05
2016-08-11T07:46:26.963Z,1013.05
2016-08-11T07:47:26.695Z,1013.08
2016-08-11T07:48:26.973Z,1013.1
2016-08-11T07:49:26.910Z,1013.12
2016-08-11T07:50:27.099Z,1013.07
2016-08-11T07:51:27.288Z,1013.06
2016-08-11T07:52:27.330Z,1013.1
2016-08-11T07:53:26.970Z,1013
2016-08-11T07:54:26.935Z,1013
2016-08-11T07:55:27.155Z,1012.97
2016-08-11T07:56:26.765Z,1013.01
2016-08-11T07:57:26.828Z,1013.03
2016-08-11T07:58:26.987Z,1013
2016-08-11T08:00:27.405Z,1013.07
2016-08-11T08:01:27.359Z,1012.98
2016-08-11T08:02:27.156Z,1012.97
2016-08-11T08:03:27.305Z,1012.99
2016-08-11T08:04:27.273Z,1013
2016-08-11T08:05:27.160Z,1012.99
2016-08-11T08:06:27.517Z,1013
2016-08-11T08:07:27.298Z,1013.02
2016-08-11T08:08:27.175Z,1013.02
2016-08-11T08:09:27.208Z,1013.03
2016-08-11T08:10:27.222Z,1013.04
2016-08-11T08:11:27.543Z,1013.04
2016-08-11T08:12:27.559Z,1013.06
2016-08-11T08:13:27.674Z,1013.07
2016-08-11T08:15:27.739Z,1012.99
2016-08-11T08:16:27.550Z,1012.93
2016-08-11T08:17:27.411Z,1012.98
2016-08-11T08:18:27.477Z,1012.98
2016-08-11T08:19:27.482Z,1012.94
2016-08-11T08:20:27.925Z,1012.89
2016-08-11T08:21:27.534Z,1012.87
2016-08-11T08:22:27.540Z,1012.81
2016-08-11T08:23:27.881Z,1012.83
2016-08-11T08:24:27.565Z,1012.86
2016-08-11T08:25:27.630Z,1012.82
2016-08-11T08:26:27.696Z,1012.83
2016-08-11T08:27:27.693Z,1012.83
2016-08-11T08:28:28.113Z,1012.85
2016-08-11T08:30:27.896Z,1012.91
2016-08-11T08:31:27.784Z,1012.92
2016-08-11T08:32:27.856Z,1012.92
2016-08-11T08:33:27.810Z,1012.93
2016-08-11T08:34:28.221Z,1013.01
2016-08-11T08:35:27.821Z,1013.01
2016-08-11T08:36:27.862Z,1012.99
2016-08-11T08:37:28.296Z,1013.03
2016-08-11T08:38:27.974Z,1013.02
2016-08-11T08:39:28.363Z,1013.06
2016-08-11T08:40:28.149Z,1013.09
2016-08-11T08:41:28.049Z,1013.05
2016-08-11T08:42:28.134Z,1013.03
2016-08-11T08:43:28.356Z,1013.03
2016-08-11T08:45:28.740Z,1013
2016-08-11T08:46:28.306Z,1012.97
2016-08-11T08:47:28.147Z,1012.92
2016-08-11T08:48:28.348Z,1012.97
2016-08-11T08:49:28.555Z,1012.97
2016-08-11T08:50:28.350Z,1012.98
2016-08-11T08:51:28.286Z,1013
2016-08-11T08:52:28.385Z,1012.99
2016-08-11T08:53:28.534Z,1012.95
2016-08-11T08:54:28.694Z,1013
2016-08-11T08:55:28.698Z,1012.97
2016-08-11T08:56:28.553Z,1012.93
2016-08-11T08:57:28.582Z,1012.87
2016-08-11T08:58:28.530Z,1012.82
2016-08-11T09:00:29.131Z,1012.76
2016-08-11T09:01:28.642Z,1012.72
2016-08-11T09:02:28.619Z,1012.74
2016-08-11T09:03:28.977Z,1012.77
2016-08-11T09:04:28.866Z,1012.8
2016-08-11T09:05:29.103Z,1012.76
2016-08-11T09:06:28.598Z,1012.71
2016-08-11T09:07:28.737Z,1012.68
2016-08-11T09:08:28.901Z,1012.76
2016-08-11T09:09:28.814Z,1012.74
2016-08-11T09:10:28.962Z,1012.69
2016-08-11T09:11:28.801Z,1012.7
2016-08-11T09:12:28.953Z,1012.71
2016-08-11T09:13:29.376Z,1012.73
2016-08-11T09:15:29.145Z,1012.76
2016-08-11T09:16:29.068Z,1012.82
2016-08-11T09:17:29.396Z,1012.82
2016-08-11T09:18:29.178Z,1012.86
2016-08-11T09:19:29.150Z,1012.84
2016-08-11T09:20:29.483Z,1012.84
2016-08-11T09:21:29.306Z,1012.77
2016-08-11T09:22:29.052Z,1012.76
2016-08-11T09:23:29.299Z,1012.71
2016-08-11T09:24:29.529Z,1012.69
2016-08-11T09:25:29.309Z,1012.72
2016-08-11T09:26:29.361Z,1012.76
2016-08-11T09:27:29.305Z,1012.79
2016-08-11T09:28:29.345Z,1012.88
2016-08-11T09:29:29.319Z,1012.8
2016-08-11T09:30:29.688Z,1012.84
2016-08-11T09:31:29.624Z,1012.74
2016-08-11T09:32:29.421Z,1012.69
2016-08-11T09:33:29.872Z,1012.7
2016-08-11T09:34:29.421Z,1012.84
2016-08-11T09:35:29.609Z,1012.77
2016-08-11T09:36:29.553Z,1012.87
2016-08-11T09:37:29.717Z,1012.84
2016-08-11T09:38:29.464Z,1013.03
2016-08-11T09:39:29.821Z,1012.89
2016-08-11T09:40:29.904Z,1012.96
2016-08-11T09:41:29.805Z,1012.97
2016-08-11T09:42:29.902Z,1012.9
2016-08-11T09:43:29.880Z,1012.89
2016-08-11T09:45:30.125Z,1012.9
2016-08-11T09:46:30.190Z,1012.9
2016-08-11T09:47:30.246Z,1012.87
2016-08-11T09:48:30.256Z,1012.91
2016-08-11T09:49:30.160Z,1012.79
2016-08-11T09:50:29.846Z,1012.73
2016-08-11T09:51:29.815Z,1012.72
2016-08-11T09:52:30.254Z,1012.7
2016-08-11T09:53:29.940Z,1012.69
2016-08-11T09:54:30.422Z,1012.74
2016-08-11T09:55:29.995Z,1012.72
2016-08-11T09:56:30.442Z,1012.76
2016-08-11T09:57:30.479Z,1012.73
2016-08-11T09:58:30.142Z,1012.77
2016-08-11T09:59:30.011Z,1012.64
2016-08-11T10:00:30.392Z,1012.58
2016-08-11T10:01:30.671Z,1012.6
2016-08-11T10:02:30.588Z,1012.63
2016-08-11T10:03:30.390Z,1012.6
2016-08-11T10:04:30.751Z,1012.57
2016-08-11T10:05:30.823Z,1012.58
2016-08-11T10:06:30.662Z,1012.55
2016-08-11T10:07:30.867Z,1012.56
2016-08-11T10:08:30.553Z,1012.56
2016-08-11T10:09:30.456Z,1012.58
2016-08-11T10:10:31.008Z,1012.49
2016-08-11T10:11:30.680Z,1012.54
2016-08-11T10:12:30.576Z,1012.52
2016-08-11T10:13:30.729Z,1012.47
2016-08-11T10:15:30.695Z,1012.48
2016-08-11T10:16:30.793Z,1012.44
2016-08-11T10:17:30.960Z,1012.45
2016-08-11T10:18:31.008Z,1012.47
2016-08-11T10:19:30.891Z,1012.42
2016-08-11T10:20:31.077Z,1012.47
2016-08-11T10:21:31.053Z,1012.51
2016-08-11T10:22:30.891Z,1012.54
2016-08-11T10:23:31.857Z,1012.51
2016-08-11T10:24:31.025Z,1012.55
2016-08-11T10:25:30.993Z,1012.55
2016-08-11T10:26:31.256Z,1012.53
2016-08-11T10:27:31.399Z,1012.5
2016-08-11T10:28:31.236Z,1012.45
2016-08-11T10:29:31.109Z,1012.5
2016-08-11T10:30:31.312Z,1012.45
2016-08-11T10:31:31.213Z,1012.43
2016-08-11T10:32:31.409Z,1012.44
2016-08-11T10:33:31.161Z,1012.46
2016-08-11T10:34:31.370Z,1012.51
2016-08-11T10:35:31.186Z,1012.55
2016-08-11T10:36:31.368Z,1012.46
2016-08-11T10:37:31.640Z,1012.65
2016-08-11T10:38:31.413Z,1012.47
2016-08-11T10:39:31.356Z,1012.44
2016-08-11T10:40:31.586Z,1012.36
2016-08-11T10:41:31.488Z,1012.33
2016-08-11T10:42:31.694Z,1012.27
2016-08-11T10:43:31.630Z,1012.19
2016-08-11T10:44:31.558Z,1012.18
2016-08-11T10:45:31.658Z,1012.13
2016-08-11T10:46:31.821Z,1012.06
2016-08-11T10:47:31.543Z,1012.06
2016-08-11T10:48:31.625Z,1012.07
2016-08-11T10:49:31.812Z,1012.13
2016-08-11T10:50:32.186Z,1012.14
2016-08-11T10:51:32.086Z,1012.23
2016-08-11T10:52:31.723Z,1012.27
2016-08-11T10:53:31.761Z,1012.24
2016-08-11T10:54:32.153Z,1012.29
2016-08-11T10:55:31.894Z,1012.35
2016-08-11T10:56:31.868Z,1012.29
2016-08-11T10:57:32.037Z,1012.28
2016-08-11T10:58:31.908Z,1012.19
2016-08-11T10:59:32.189Z,1012.19
2016-08-11T11:00:31.881Z,1012.27
2016-08-11T11:01:32.336Z,1012.21
2016-08-11T11:02:32.145Z,1012.18
2016-08-11T11:03:32.408Z,1012.15
2016-08-11T11:04:32.032Z,1012.28
2016-08-11T11:05:32.076Z,1012.21
2016-08-11T11:06:32.594Z,1012.32
2016-08-11T11:07:32.335Z,1012.41
2016-08-11T11:08:32.111Z,1012.42
2016-08-11T11:09:32.317Z,1012.46
2016-08-11T11:10:32.302Z,1012.46
2016-08-11T11:11:32.757Z,1012.54
2016-08-11T11:12:32.473Z,1012.46
2016-08-11T11:13:32.550Z,1012.27
2016-08-11T11:14:32.471Z,1012.28
2016-08-11T11:15:32.450Z,1012.32
2016-08-11T11:16:32.825Z,1012.25
2016-08-11T11:17:32.647Z,1012.21
2016-08-11T11:18:32.507Z,1012.21
2016-08-11T11:19:33.215Z,1012.18
2016-08-11T11:20:32.800Z,1012.14
2016-08-11T11:21:33.262Z,1012.2
2016-08-11T11:22:32.797Z,1012.18
2016-08-11T11:23:32.694Z,1012.14
2016-08-11T11:24:32.762Z,1012.16
2016-08-11T11:25:32.915Z,1012.17
2016-08-11T11:26:32.904Z,1012.12
2016-08-11T11:27:32.717Z,1012.09
2016-08-11T11:28:32.800Z,1012.16
2016-08-11T11:29:33.132Z,1012.13
2016-08-11T11:30:33.009Z,1012.13
2016-08-11T11:31:32.884Z,1012.12
2016-08-11T11:32:33.243Z,1012.17
2016-08-11T11:33:33.272Z,1012.16
2016-08-11T11:34:33.164Z,1012.24
2016-08-11T11:35:33.161Z,1012.16
2016-08-11T11:36:33.065Z,1012.16
2016-08-11T11:37:33.091Z,1012.25
2016-08-11T11:38:33.725Z,1012.17
2016-08-11T11:39:33.229Z,1012.17
2016-08-11T11:40:33.122Z,1012.21
2016-08-11T11:41:33.241Z,1012.18
2016-08-11T11:42:33.341Z,1012.21
2016-08-11T11:43:33.323Z,1012.24
2016-08-11T11:44:33.353Z,1012.18
2016-08-11T11:45:33.691Z,1012.15
2016-08-11T11:46:33.922Z,1012.15
2016-08-11T11:47:33.521Z,1012.11
2016-08-11T11:48:33.641Z,1012.05
2016-08-11T11:49:33.759Z,1012.07
2016-08-11T11:50:33.599Z,1011.99
2016-08-11T11:51:33.772Z,1012.07
2016-08-11T11:52:33.617Z,1012.01
2016-08-11T11:53:33.722Z,1012.04
2016-08-11T11:54:34.060Z,1011.98
2016-08-11T11:55:33.872Z,1012
2016-08-11T11:56:33.897Z,1012
2016-08-11T11:57:33.909Z,1012.04
2016-08-11T11:58:33.778Z,1012.01
2016-08-11T11:59:33.898Z,1011.95
2016-08-11T12:00:34.106Z,1011.94
2016-08-11T12:01:33.918Z,1011.85
2016-08-11T12:02:34.179Z,1011.87
2016-08-11T12:03:34.127Z,1011.9
2016-08-11T12:04:34.045Z,1011.82
2016-08-11T12:05:34.501Z,1011.86
2016-08-11T12:06:34.135Z,1011.78
2016-08-11T12:07:34.595Z,1011.76
2016-08-11T12:08:34.389Z,1011.73
2016-08-11T12:09:34.367Z,1011.66
2016-08-11T12:10:34.522Z,1011.71
2016-08-11T12:11:34.419Z,1011.68
2016-08-11T12:12:34.510Z,1011.7
2016-08-11T12:13:34.251Z,1011.72
2016-08-11T12:14:34.523Z,1011.7
2016-08-11T12:15:34.448Z,1011.7
2016-08-11T12:16:34.423Z,1011.7
2016-08-11T12:17:34.628Z,1011.74
2016-08-11T12:18:34.504Z,1011.8
2016-08-11T12:19:34.554Z,1011.78
2016-08-11T12:20:34.549Z,1011.85
2016-08-11T12:21:34.506Z,1011.87
2016-08-11T12:22:34.602Z,1011.89